createdAt,value
2022-11-05T00:00:19.943Z,6.55
2022-11-05T00:02:46.680Z,6.53
2022-11-05T00:05:13.769Z,6.61
2022-11-05T00:07:43.010Z,6.60
2022-11-05T00:10:30.495Z,6.57
2022-11-05T00:12:59.482Z,6.56
2022-11-05T00:15:26.046Z,6.47
2022-11-05T00:17:52.823Z,6.22
2022-11-05T00:20:19.413Z,5.92
2022-11-05T00:22:46.106Z,6.03
2022-11-05T00:25:13.085Z,6.08
2022-11-05T00:27:40.778Z,6.12
2022-11-05T00:30:07.818Z,6.26
2022-11-05T00:32:36.195Z,6.15
2022-11-05T00:35:02.789Z,6.29
2022-11-05T00:37:29.465Z,6.17
2022-11-05T00:39:56.052Z,6.18
2022-11-05T00:42:22.891Z,6.11
2022-11-05T00:44:49.444Z,5.87
2022-11-05T00:47:16.028Z,5.93
2022-11-05T00:49:42.684Z,6.02
2022-11-05T00:52:09.300Z,5.99
2022-11-05T00:54:35.859Z,5.98
2022-11-05T00:57:04.739Z,6.06
2022-11-05T00:59:31.785Z,5.92
2022-11-05T01:01:58.597Z,6.01
2022-11-05T01:04:25.401Z,5.88
2022-11-05T01:06:52.069Z,5.84
2022-11-05T01:09:18.617Z,5.94
2022-11-05T01:11:45.373Z,5.86
2022-11-05T01:14:15.000Z,5.89
2022-11-05T01:16:41.801Z,5.81
2022-11-05T01:19:10.284Z,5.79
2022-11-05T01:21:37.120Z,5.91
2022-11-05T01:24:04.013Z,6.09
2022-11-05T01:26:31.060Z,6.12
2022-11-05T01:28:58.916Z,6.05
2022-11-05T01:31:26.054Z,6.14
2022-11-05T01:33:52.668Z,6.20
2022-11-05T01:36:19.389Z,6.07
2022-11-05T01:38:45.978Z,6.08
2022-11-05T01:41:12.755Z,6.15
2022-11-05T01:43:54.264Z,6.28
2022-11-05T01:46:29.447Z,6.26
2022-11-05T01:49:03.396Z,6.04
2022-11-05T01:51:31.035Z,6.18
2022-11-05T01:54:06.083Z,6.27
2022-11-05T01:56:38.074Z,6.24
2022-11-05T01:59:27.559Z,6.20
2022-11-05T02:01:55.438Z,6.24
2022-11-05T02:04:32.860Z,6.25
2022-11-05T02:07:00.188Z,6.08
2022-11-05T02:09:31.868Z,6.08
2022-11-05T02:11:58.602Z,5.99
2022-11-05T02:14:25.229Z,6.02
2022-11-05T02:17:04.582Z,6.13
2022-11-05T02:19:57.499Z,6.03
2022-11-05T02:23:00.939Z,5.93
2022-11-05T02:25:42.480Z,5.93
2022-11-05T02:28:49.237Z,5.91
2022-11-05T02:31:25.092Z,6.03
2022-11-05T02:33:59.899Z,6.06
2022-11-05T02:36:51.534Z,6.13
2022-11-05T02:39:30.576Z,6.01
2022-11-05T02:42:25.957Z,5.86
2022-11-05T02:45:04.597Z,5.95
2022-11-05T02:47:52.192Z,6.08
2022-11-05T02:50:21.773Z,6.03
2022-11-05T02:52:57.426Z,6.08
2022-11-05T02:56:02.067Z,6.22
2022-11-05T02:58:29.543Z,6.27
2022-11-05T03:00:59.597Z,6.25
2022-11-05T03:03:34.630Z,6.17
2022-11-05T03:06:19.181Z,6.10
2022-11-05T03:09:04.341Z,5.96
2022-11-05T03:11:34.226Z,5.87
2022-11-05T03:14:18.931Z,5.95
2022-11-05T03:16:59.017Z,6.03
2022-11-05T03:19:37.939Z,6.04
2022-11-05T03:22:25.368Z,6.13
2022-11-05T03:24:57.619Z,6.29
2022-11-05T03:27:31.361Z,6.36
2022-11-05T03:30:10.455Z,6.38
2022-11-05T03:32:42.788Z,6.43
2022-11-05T03:35:16.462Z,6.40
2022-11-05T03:37:46.341Z,6.36
2022-11-05T03:40:18.239Z,6.37
2022-11-05T03:42:49.262Z,6.42
2022-11-05T03:45:25.550Z,6.42
2022-11-05T03:47:57.525Z,6.25
2022-11-05T03:50:40.069Z,6.52
2022-11-05T03:53:15.454Z,6.61
2022-11-05T03:55:56.775Z,6.57
2022-11-05T03:58:23.945Z,6.29
2022-11-05T04:00:51.000Z,6.59
2022-11-05T04:03:17.792Z,6.53
2022-11-05T04:05:44.730Z,6.61
2022-11-05T04:08:14.258Z,6.67
2022-11-05T04:10:41.399Z,6.68
2022-11-05T04:13:11.363Z,6.66
2022-11-05T04:15:38.279Z,6.67
2022-11-05T04:18:05.005Z,6.68
2022-11-05T04:20:31.589Z,6.67
2022-11-05T04:23:04.377Z,6.68
2022-11-05T04:25:31.040Z,6.45
2022-11-05T04:28:00.537Z,6.18
2022-11-05T04:30:27.309Z,6.21
2022-11-05T04:33:06.933Z,6.14
2022-11-05T04:35:39.643Z,5.99
2022-11-05T04:38:12.235Z,5.95
2022-11-05T04:40:39.109Z,5.99
2022-11-05T04:43:10.619Z,6.07
2022-11-05T04:45:41.944Z,6.13
2022-11-05T04:48:08.790Z,6.16
2022-11-05T04:50:35.507Z,6.22
2022-11-05T04:53:02.378Z,6.34
2022-11-05T04:55:29.436Z,6.38
2022-11-05T04:57:55.992Z,6.40
2022-11-05T05:00:23.816Z,6.47
2022-11-05T05:02:50.448Z,6.35
2022-11-05T05:05:17.540Z,6.45
2022-11-05T05:07:44.204Z,6.37
2022-11-05T05:10:11.882Z,6.28
2022-11-05T05:12:38.495Z,6.49
2022-11-05T05:15:05.858Z,6.52
2022-11-05T05:17:32.415Z,6.50
2022-11-05T05:19:59.110Z,6.47
2022-11-05T05:22:25.873Z,6.48
2022-11-05T05:24:53.000Z,6.52
2022-11-05T05:27:20.457Z,6.47
2022-11-05T05:29:47.162Z,6.50
2022-11-05T05:32:13.757Z,6.43
2022-11-05T05:34:40.436Z,6.44
2022-11-05T05:37:07.083Z,6.52
2022-11-05T05:39:33.714Z,6.53
2022-11-05T05:42:00.240Z,6.56
2022-11-05T05:44:27.107Z,6.61
2022-11-05T05:46:54.579Z,6.60
2022-11-05T05:49:21.231Z,6.51
2022-11-05T05:51:50.824Z,6.52
2022-11-05T05:54:17.465Z,6.48
2022-11-05T05:56:44.372Z,6.41
2022-11-05T05:59:12.280Z,6.37
2022-11-05T06:01:39.208Z,6.45
2022-11-05T06:04:06.012Z,6.45
2022-11-05T06:06:32.927Z,6.47
2022-11-05T06:08:59.529Z,6.45
2022-11-05T06:11:26.260Z,6.49
2022-11-05T06:13:53.052Z,6.19
2022-11-05T06:16:19.783Z,6.51
2022-11-05T06:18:46.949Z,6.50
2022-11-05T06:21:16.145Z,6.47
2022-11-05T06:23:45.001Z,6.55
2022-11-05T06:26:14.151Z,6.54
2022-11-05T06:28:41.194Z,6.54
2022-11-05T06:31:09.381Z,6.52
2022-11-05T06:33:36.109Z,6.47
2022-11-05T06:36:04.204Z,6.27
2022-11-05T06:38:36.686Z,6.27
2022-11-05T06:41:09.021Z,6.28
2022-11-05T06:43:37.539Z,6.16
2022-11-05T06:46:04.529Z,6.11
2022-11-05T06:48:31.180Z,6.16
2022-11-05T06:50:57.985Z,6.20
2022-11-05T06:53:26.412Z,6.02
2022-11-05T06:55:53.000Z,5.81
2022-11-05T06:58:19.718Z,5.62
2022-11-05T07:00:47.450Z,5.81
2022-11-05T07:03:15.322Z,5.87
2022-11-05T07:05:49.523Z,5.90
2022-11-05T07:08:17.004Z,6.06
2022-11-05T07:10:43.721Z,6.07
2022-11-05T07:13:11.044Z,6.02
2022-11-05T07:15:38.343Z,6.05
2022-11-05T07:18:06.214Z,6.16
2022-11-05T07:20:34.409Z,6.20
2022-11-05T07:23:11.823Z,6.29
2022-11-05T07:25:39.125Z,6.32
2022-11-05T07:28:05.910Z,6.42
2022-11-05T07:30:33.934Z,6.46
2022-11-05T07:33:01.006Z,6.43
2022-11-05T07:35:28.193Z,6.47
2022-11-05T07:37:55.546Z,6.45
2022-11-05T07:40:24.595Z,6.49
2022-11-05T07:42:53.330Z,6.46
2022-11-05T07:45:20.762Z,6.40
2022-11-05T07:47:49.351Z,6.42
2022-11-05T07:50:18.343Z,6.48
2022-11-05T07:52:45.053Z,6.56
2022-11-05T07:55:12.250Z,6.59
2022-11-05T07:58:08.713Z,6.34
2022-11-05T08:00:37.222Z,6.22
2022-11-05T08:03:25.275Z,6.18
2022-11-05T08:05:53.068Z,6.09
2022-11-05T08:08:20.084Z,6.34
2022-11-05T08:10:47.128Z,6.43
2022-11-05T08:13:15.168Z,6.35
2022-11-05T08:15:42.903Z,6.36
2022-11-05T08:18:15.062Z,6.14
2022-11-05T08:20:43.680Z,5.99
2022-11-05T08:23:10.962Z,5.95
2022-11-05T08:25:37.808Z,5.93
2022-11-05T08:28:07.172Z,5.87
2022-11-05T08:30:34.778Z,5.75
2022-11-05T08:33:03.965Z,6.10
2022-11-05T08:35:31.215Z,6.34
2022-11-05T08:38:02.387Z,6.60
2022-11-05T08:40:31.368Z,6.67
2022-11-05T08:42:59.424Z,6.76
2022-11-05T08:45:26.872Z,6.79
2022-11-05T08:48:22.630Z,6.90
2022-11-05T08:50:49.349Z,6.75
2022-11-05T08:53:16.667Z,6.73
2022-11-05T08:55:43.664Z,6.87
2022-11-05T08:58:15.255Z,6.74
2022-11-05T09:00:43.028Z,6.85
2022-11-05T09:03:10.600Z,6.58
2022-11-05T09:05:39.707Z,6.86
2022-11-05T09:08:11.471Z,6.84
2022-11-05T09:10:39.170Z,6.89
2022-11-05T09:13:06.092Z,6.89
2022-11-05T09:15:33.120Z,6.96
2022-11-05T09:18:00.100Z,7.16
2022-11-05T09:20:26.782Z,7.32
2022-11-05T09:22:53.567Z,7.50
2022-11-05T09:25:20.366Z,7.85
2022-11-05T09:27:46.926Z,8.00
2022-11-05T09:30:14.088Z,7.83
2022-11-05T09:32:41.517Z,7.90
2022-11-05T09:35:09.268Z,8.10
2022-11-05T09:37:37.553Z,8.23
2022-11-05T09:40:05.123Z,7.77
2022-11-05T09:42:37.774Z,7.47
2022-11-05T09:45:10.395Z,7.46
2022-11-05T09:47:42.664Z,7.25
2022-11-05T09:50:16.119Z,7.38
2022-11-05T09:52:43.018Z,7.56
2022-11-05T09:55:28.030Z,7.65
2022-11-05T09:57:59.293Z,7.78
2022-11-05T10:00:26.275Z,7.91
2022-11-05T10:02:57.990Z,7.95
2022-11-05T10:05:26.914Z,7.63
2022-11-05T10:07:58.033Z,7.85
2022-11-05T10:10:45.446Z,7.61
2022-11-05T10:13:34.950Z,7.42
2022-11-05T10:16:07.278Z,7.28
2022-11-05T10:18:41.192Z,7.25
2022-11-05T10:21:32.250Z,7.04
2022-11-05T10:23:59.273Z,7.01
2022-11-05T10:26:27.896Z,7.07
2022-11-05T10:28:55.093Z,7.29
2022-11-05T10:31:22.481Z,7.39
2022-11-05T10:33:54.402Z,7.54
2022-11-05T10:36:22.659Z,7.66
2022-11-05T10:38:50.289Z,7.68
2022-11-05T10:41:44.649Z,7.90
2022-11-05T10:44:48.365Z,7.96
2022-11-05T10:47:32.933Z,8.02
2022-11-05T10:50:04.193Z,8.12
2022-11-05T10:52:36.902Z,8.32
2022-11-05T10:55:24.917Z,8.29
2022-11-05T10:57:52.086Z,8.29
2022-11-05T11:00:24.671Z,8.41
2022-11-05T11:03:00.089Z,8.60
2022-11-05T11:05:31.289Z,8.51
2022-11-05T11:08:06.054Z,8.46
2022-11-05T11:10:41.498Z,8.25
2022-11-05T11:13:47.257Z,8.48
2022-11-05T11:16:19.652Z,8.53
2022-11-05T11:18:46.345Z,8.35
2022-11-05T11:21:18.664Z,8.48
2022-11-05T11:23:57.643Z,8.78
2022-11-05T11:26:27.968Z,9.09
2022-11-05T11:29:05.415Z,9.25
2022-11-05T11:31:36.993Z,9.22
2022-11-05T11:34:07.001Z,9.29
2022-11-05T11:36:44.674Z,9.28
2022-11-05T11:39:21.569Z,9.56
2022-11-05T11:41:58.665Z,9.51
2022-11-05T11:44:40.828Z,9.35
2022-11-05T11:47:15.679Z,9.32
2022-11-05T11:49:49.077Z,9.47
2022-11-05T11:52:36.886Z,9.33
2022-11-05T11:55:09.450Z,9.42
2022-11-05T11:57:44.168Z,9.14
2022-11-05T12:00:11.480Z,9.30
2022-11-05T12:03:02.018Z,9.66
2022-11-05T12:05:53.395Z,9.85
2022-11-05T12:08:36.250Z,10.07
2022-11-05T12:11:13.035Z,10.03
2022-11-05T12:13:54.964Z,10.05
2022-11-05T12:16:28.956Z,10.19
2022-11-05T12:19:14.044Z,10.28
2022-11-05T12:21:53.433Z,10.36
2022-11-05T12:24:29.301Z,10.52
2022-11-05T12:26:55.883Z,10.49
2022-11-05T12:29:41.616Z,10.16
2022-11-05T12:32:28.982Z,10.56
2022-11-05T12:35:14.578Z,10.67
2022-11-05T12:37:41.217Z,10.60
2022-11-05T12:40:29.190Z,10.42
2022-11-05T12:43:12.229Z,10.69
2022-11-05T12:45:41.617Z,10.76
2022-11-05T12:48:35.796Z,10.68
2022-11-05T12:51:34.168Z,10.45
2022-11-05T12:54:06.460Z,10.38
2022-11-05T12:56:44.313Z,10.54
2022-11-05T12:59:14.906Z,10.37
2022-11-05T13:01:49.051Z,10.28
2022-11-05T13:04:41.330Z,10.12
2022-11-05T13:07:13.800Z,9.70
2022-11-05T13:09:49.269Z,9.47
2022-11-05T13:12:21.333Z,9.13
2022-11-05T13:15:01.293Z,9.62
2022-11-05T13:17:54.905Z,9.69
2022-11-05T13:20:28.964Z,9.71
2022-11-05T13:23:00.494Z,9.67
2022-11-05T13:25:37.804Z,9.80
2022-11-05T13:28:16.494Z,10.01
2022-11-05T13:30:50.735Z,10.13
2022-11-05T13:33:34.468Z,10.28
2022-11-05T13:36:10.184Z,10.26
2022-11-05T13:38:38.050Z,10.15
2022-11-05T13:41:30.459Z,10.01
2022-11-05T13:44:03.076Z,9.96
2022-11-05T13:46:55.784Z,9.73
2022-11-05T13:49:31.293Z,9.76
2022-11-05T13:52:18.297Z,9.75
2022-11-05T13:54:50.822Z,9.70
2022-11-05T13:57:32.096Z,9.64
2022-11-05T14:00:11.081Z,9.48
2022-11-05T14:02:45.217Z,9.48
2022-11-05T14:05:30.061Z,9.41
2022-11-05T14:07:59.700Z,9.48
2022-11-05T14:10:41.264Z,9.61
2022-11-05T14:13:22.417Z,9.63
2022-11-05T14:16:10.354Z,9.80
2022-11-05T14:18:47.064Z,9.70
2022-11-05T14:21:25.839Z,9.68
2022-11-05T14:23:57.929Z,9.56
2022-11-05T14:26:28.730Z,9.40
2022-11-05T14:28:58.449Z,9.58
2022-11-05T14:32:08.193Z,9.40
2022-11-05T14:34:53.385Z,9.18
2022-11-05T14:37:33.559Z,9.34
2022-11-05T14:40:25.976Z,9.30
2022-11-05T14:42:58.952Z,9.32
2022-11-05T14:45:52.181Z,9.07
2022-11-05T14:48:30.933Z,8.83
2022-11-05T14:50:59.239Z,8.58
2022-11-05T14:53:33.714Z,8.64
2022-11-05T14:56:17.596Z,8.65
2022-11-05T14:58:46.084Z,8.81
2022-11-05T15:01:15.745Z,8.84
2022-11-05T15:03:46.228Z,8.75
2022-11-05T15:06:33.630Z,8.73
2022-11-05T15:09:03.090Z,8.68
2022-11-05T15:11:53.058Z,8.43
2022-11-05T15:14:30.490Z,8.33
2022-11-05T15:17:08.256Z,8.35
2022-11-05T15:19:36.535Z,8.42
2022-11-05T15:22:18.274Z,8.44
2022-11-05T15:24:44.933Z,8.71
2022-11-05T15:27:38.753Z,8.73
2022-11-05T15:30:15.394Z,8.76
2022-11-05T15:32:42.175Z,8.80
2022-11-05T15:35:20.416Z,8.91
2022-11-05T15:37:54.694Z,8.88
2022-11-05T15:40:29.904Z,8.88
2022-11-05T15:43:17.256Z,8.77
2022-11-05T15:46:17.308Z,8.61
2022-11-05T15:48:49.134Z,8.17
2022-11-05T15:51:21.313Z,8.29
2022-11-05T15:54:08.817Z,8.14
2022-11-05T15:56:40.044Z,8.40
2022-11-05T15:59:16.700Z,8.47
2022-11-05T16:01:49.672Z,8.61
2022-11-05T16:04:21.287Z,8.64
2022-11-05T16:06:52.699Z,8.63
2022-11-05T16:09:27.718Z,8.59
2022-11-05T16:12:20.468Z,8.46
2022-11-05T16:15:08.133Z,8.46
2022-11-05T16:17:37.602Z,8.46
2022-11-05T16:20:25.416Z,8.44
2022-11-05T16:22:55.400Z,8.18
2022-11-05T16:25:28.407Z,8.40
2022-11-05T16:27:57.160Z,8.20
2022-11-05T16:30:24.356Z,8.24
2022-11-05T16:32:51.527Z,8.28
2022-11-05T16:35:21.884Z,8.17
2022-11-05T16:37:52.043Z,8.23
2022-11-05T16:40:24.076Z,8.18
2022-11-05T16:42:52.739Z,8.08
2022-11-05T16:45:22.863Z,8.01
2022-11-05T16:47:49.547Z,7.92
2022-11-05T16:50:25.279Z,7.87
2022-11-05T16:52:52.802Z,7.83
2022-11-05T16:55:19.709Z,7.82
2022-11-05T16:57:53.305Z,7.81
2022-11-05T17:00:21.236Z,7.95
2022-11-05T17:02:48.342Z,8.00
2022-11-05T17:05:23.597Z,8.09
2022-11-05T17:07:50.741Z,7.97
2022-11-05T17:10:18.250Z,8.10
2022-11-05T17:12:46.097Z,8.18
2022-11-05T17:15:34.331Z,8.06
2022-11-05T17:18:02.633Z,8.26
2022-11-05T17:20:40.813Z,8.22
2022-11-05T17:23:28.121Z,8.13
2022-11-05T17:26:00.341Z,8.14
2022-11-05T17:28:27.681Z,8.07
2022-11-05T17:30:54.714Z,7.97
2022-11-05T17:33:22.857Z,7.94
2022-11-05T17:35:50.294Z,7.94
2022-11-05T17:38:17.141Z,7.54
2022-11-05T17:40:44.005Z,7.67
2022-11-05T17:43:11.265Z,7.55
2022-11-05T17:45:46.285Z,7.76
2022-11-05T17:48:14.304Z,7.67
2022-11-05T17:50:46.650Z,7.63
2022-11-05T17:53:14.875Z,7.49
2022-11-05T17:55:43.596Z,7.67
2022-11-05T17:58:11.102Z,7.60
2022-11-05T18:00:38.546Z,7.56
2022-11-05T18:03:05.340Z,7.62
2022-11-05T18:05:33.426Z,7.59
2022-11-05T18:08:00.329Z,7.60
2022-11-05T18:10:26.984Z,7.56
2022-11-05T18:12:53.775Z,7.61
2022-11-05T18:15:20.555Z,7.51
2022-11-05T18:17:47.719Z,7.20
2022-11-05T18:20:19.280Z,7.06
2022-11-05T18:22:49.784Z,7.16
2022-11-05T18:25:17.109Z,7.31
2022-11-05T18:27:44.288Z,7.42
2022-11-05T18:30:11.880Z,7.38
2022-11-05T18:32:38.888Z,7.53
2022-11-05T18:35:05.760Z,7.61
2022-11-05T18:37:32.589Z,7.41
2022-11-05T18:39:59.175Z,7.53
2022-11-05T18:42:25.856Z,7.53
2022-11-05T18:44:52.522Z,7.55
2022-11-05T18:47:19.231Z,7.55
2022-11-05T18:49:45.791Z,7.15
2022-11-05T18:52:12.737Z,7.17
2022-11-05T18:54:39.398Z,7.34
2022-11-05T18:57:06.144Z,7.37
2022-11-05T18:59:38.550Z,7.34
2022-11-05T19:02:08.328Z,7.27
2022-11-05T19:04:36.187Z,7.30
2022-11-05T19:07:05.128Z,7.13
2022-11-05T19:09:38.627Z,7.09
2022-11-05T19:12:06.575Z,7.14
2022-11-05T19:14:34.113Z,6.89
2022-11-05T19:17:01.748Z,6.86
2022-11-05T19:19:28.692Z,6.82
2022-11-05T19:21:55.449Z,6.74
2022-11-05T19:24:22.157Z,6.56
2022-11-05T19:26:48.749Z,6.47
2022-11-05T19:29:15.349Z,6.45
2022-11-05T19:31:42.142Z,6.56
2022-11-05T19:34:08.787Z,6.47
2022-11-05T19:36:35.482Z,6.52
2022-11-05T19:39:07.134Z,6.62
2022-11-05T19:41:33.802Z,6.54
2022-11-05T19:44:00.453Z,6.03
2022-11-05T19:46:28.055Z,6.20
2022-11-05T19:48:54.880Z,6.24
2022-11-05T19:51:26.696Z,6.00
2022-11-05T19:53:55.288Z,5.94
2022-11-05T19:56:24.592Z,5.73
2022-11-05T19:58:52.065Z,5.77
2022-11-05T20:01:20.123Z,5.72
2022-11-05T20:03:47.069Z,5.47
2022-11-05T20:06:25.372Z,5.87
2022-11-05T20:09:21.225Z,5.83
2022-11-05T20:11:39.244Z,5.78
2022-11-05T20:14:07.422Z,5.66
2022-11-05T20:16:35.381Z,5.65
2022-11-05T20:19:04.333Z,5.45
2022-11-05T20:21:31.283Z,5.61
2022-11-05T20:23:59.165Z,5.67
2022-11-05T20:26:27.439Z,5.54
2022-11-05T20:28:54.638Z,5.68
2022-11-05T20:31:21.735Z,5.64
2022-11-05T20:33:49.090Z,5.74
2022-11-05T20:36:21.598Z,5.78
2022-11-05T20:38:53.690Z,5.87
2022-11-05T20:41:20.475Z,5.77
2022-11-05T20:43:47.435Z,5.71
2022-11-05T20:46:21.761Z,5.61
2022-11-05T20:48:49.829Z,5.45
2022-11-05T20:51:19.314Z,5.73
2022-11-05T20:53:46.837Z,5.54
2022-11-05T20:56:18.737Z,5.43
2022-11-05T20:58:45.771Z,5.54
2022-11-05T21:01:13.409Z,5.22
2022-11-05T21:03:40.096Z,5.35
2022-11-05T21:06:07.776Z,5.36
2022-11-05T21:08:38.009Z,5.26
2022-11-05T21:11:05.996Z,5.18
2022-11-05T21:13:36.865Z,5.01
2022-11-05T21:16:07.351Z,5.12
2022-11-05T21:18:39.219Z,5.10
2022-11-05T21:21:11.978Z,4.92
2022-11-05T21:23:38.720Z,5.01
2022-11-05T21:26:06.726Z,4.76
2022-11-05T21:28:34.198Z,4.44
2022-11-05T21:31:02.627Z,4.44
2022-11-05T21:33:30.085Z,4.55
2022-11-05T21:35:57.554Z,4.48
2022-11-05T21:38:24.195Z,4.80
2022-11-05T21:40:50.995Z,4.90
2022-11-05T21:43:17.821Z,4.51
2022-11-05T21:45:45.206Z,4.61
2022-11-05T21:48:12.618Z,4.59
2022-11-05T21:50:39.792Z,4.75
2022-11-05T21:53:06.519Z,4.70
2022-11-05T21:55:33.180Z,4.74
2022-11-05T21:58:04.514Z,4.49
2022-11-05T22:00:31.239Z,4.79
2022-11-05T22:02:58.035Z,4.79
2022-11-05T22:05:24.691Z,4.63
2022-11-05T22:07:51.375Z,4.59
2022-11-05T22:10:18.355Z,4.45
2022-11-05T22:12:46.831Z,4.36
2022-11-05T22:15:13.962Z,4.57
2022-11-05T22:17:46.276Z,4.67
2022-11-05T22:20:13.898Z,4.61
2022-11-05T22:22:40.506Z,4.51
2022-11-05T22:25:07.539Z,4.51
2022-11-05T22:27:34.149Z,4.54
2022-11-05T22:30:01.121Z,4.62
2022-11-05T22:32:27.963Z,4.64
2022-11-05T22:34:54.727Z,4.56
2022-11-05T22:37:21.376Z,4.73
2022-11-05T22:39:48.468Z,4.84
2022-11-05T22:42:15.187Z,4.70
2022-11-05T22:44:41.941Z,4.68
2022-11-05T22:47:08.607Z,4.57
2022-11-05T22:49:35.385Z,4.64
2022-11-05T22:52:02.041Z,4.78
2022-11-05T22:54:28.911Z,4.61
2022-11-05T22:56:55.556Z,4.56
2022-11-05T22:59:22.265Z,4.55
2022-11-05T23:01:49.213Z,4.32
2022-11-05T23:04:16.424Z,4.63
2022-11-05T23:06:43.456Z,4.52
2022-11-05T23:09:17.588Z,4.60
2022-11-05T23:11:51.158Z,4.61
2022-11-05T23:14:17.922Z,4.79
2022-11-05T23:16:44.826Z,4.51
2022-11-05T23:19:11.930Z,4.48
2022-11-05T23:21:38.506Z,4.61
2022-11-05T23:24:05.841Z,4.49
2022-11-05T23:26:36.887Z,4.38
2022-11-05T23:29:03.774Z,4.51
2022-11-05T23:31:30.869Z,4.48
2022-11-05T23:33:57.507Z,4.31
2022-11-05T23:36:24.082Z,4.10
2022-11-05T23:38:50.956Z,4.27
2022-11-05T23:41:17.553Z,4.10
2022-11-05T23:43:44.217Z,4.11
2022-11-05T23:46:10.917Z,3.98
2022-11-05T23:48:37.797Z,3.81
2022-11-05T23:51:05.931Z,3.73
2022-11-05T23:53:34.666Z,3.80
2022-11-05T23:56:07.096Z,3.85
2022-11-05T23:58:35.191Z,3.81
